sensor_id;sensor_type;location;lat;lon;timestamp;P1;durP1;ratioP1;P2;durP2;ratioP2
62929;SDS011;49036;42.782;23.108;2023-04-06T00:02:03;13.38;;;8.00;;
62929;SDS011;49036;42.782;23.108;2023-04-06T00:04:29;11.65;;;7.07;;
62929;SDS011;49036;42.782;23.108;2023-04-06T00:06:55;13.00;;;6.55;;
62929;SDS011;49036;42.782;23.108;2023-04-06T00:09:21;12.98;;;7.97;;
62929;SDS011;49036;42.782;23.108;2023-04-06T00:11:47;12.75;;;7.68;;
62929;SDS011;49036;42.782;23.108;2023-04-06T00:14:12;13.57;;;8.63;;
62929;SDS011;49036;42.782;23.108;2023-04-06T00:16:38;14.90;;;8.65;;
62929;SDS011;49036;42.782;23.108;2023-04-06T00:19:04;12.77;;;8.43;;
62929;SDS011;49036;42.782;23.108;2023-04-06T00:21:30;15.52;;;9.32;;
62929;SDS011;49036;42.782;23.108;2023-04-06T00:23:56;15.15;;;9.30;;
62929;SDS011;49036;42.782;23.108;2023-04-06T00:26:21;18.58;;;8.15;;
62929;SDS011;49036;42.782;23.108;2023-04-06T00:28:47;12.57;;;8.13;;
62929;SDS011;49036;42.782;23.108;2023-04-06T00:31:15;14.30;;;7.85;;
62929;SDS011;49036;42.782;23.108;2023-04-06T00:33:40;10.00;;;5.80;;
62929;SDS011;49036;42.782;23.108;2023-04-06T00:36:06;15.15;;;8.25;;
62929;SDS011;49036;42.782;23.108;2023-04-06T00:38:32;12.00;;;7.18;;
62929;SDS011;49036;42.782;23.108;2023-04-06T00:40:57;14.25;;;9.77;;
62929;SDS011;49036;42.782;23.108;2023-04-06T00:43:23;14.02;;;7.57;;
62929;SDS011;49036;42.782;23.108;2023-04-06T00:45:49;15.27;;;10.35;;
62929;SDS011;49036;42.782;23.108;2023-04-06T00:48:15;13.85;;;8.63;;
62929;SDS011;49036;42.782;23.108;2023-04-06T00:50:41;19.77;;;9.95;;
62929;SDS011;49036;42.782;23.108;2023-04-06T00:53:07;17.90;;;9.45;;
62929;SDS011;49036;42.782;23.108;2023-04-06T00:55:33;18.60;;;10.50;;
62929;SDS011;49036;42.782;23.108;2023-04-06T00:58:01;13.43;;;8.07;;
62929;SDS011;49036;42.782;23.108;2023-04-06T01:00:27;16.13;;;9.57;;
62929;SDS011;49036;42.782;23.108;2023-04-06T01:02:53;19.50;;;9.52;;
62929;SDS011;49036;42.782;23.108;2023-04-06T01:05:18;15.10;;;8.02;;
62929;SDS011;49036;42.782;23.108;2023-04-06T01:07:44;11.77;;;7.47;;
62929;SDS011;49036;42.782;23.108;2023-04-06T01:10:22;14.38;;;8.18;;
62929;SDS011;49036;42.782;23.108;2023-04-06T01:12:51;18.70;;;10.95;;
62929;SDS011;49036;42.782;23.108;2023-04-06T01:15:16;14.93;;;9.32;;
62929;SDS011;49036;42.782;23.108;2023-04-06T01:17:42;17.67;;;10.32;;
62929;SDS011;49036;42.782;23.108;2023-04-06T01:20:08;13.82;;;9.40;;
62929;SDS011;49036;42.782;23.108;2023-04-06T01:22:33;16.58;;;10.40;;
62929;SDS011;49036;42.782;23.108;2023-04-06T01:24:59;17.00;;;9.23;;
62929;SDS011;49036;42.782;23.108;2023-04-06T01:27:24;16.80;;;11.00;;
62929;SDS011;49036;42.782;23.108;2023-04-06T01:29:51;20.10;;;11.00;;
62929;SDS011;49036;42.782;23.108;2023-04-06T01:32:17;23.48;;;11.95;;
62929;SDS011;49036;42.782;23.108;2023-04-06T01:34:42;15.55;;;9.45;;
62929;SDS011;49036;42.782;23.108;2023-04-06T01:37:08;20.13;;;10.15;;
62929;SDS011;49036;42.782;23.108;2023-04-06T01:39:34;15.75;;;10.80;;
62929;SDS011;49036;42.782;23.108;2023-04-06T01:42:00;16.70;;;8.95;;
62929;SDS011;49036;42.782;23.108;2023-04-06T01:44:25;16.15;;;11.07;;
62929;SDS011;49036;42.782;23.108;2023-04-06T01:46:51;21.83;;;11.10;;
62929;SDS011;49036;42.782;23.108;2023-04-06T01:49:16;17.92;;;11.13;;
62929;SDS011;49036;42.782;23.108;2023-04-06T01:51:42;15.25;;;9.45;;
62929;SDS011;49036;42.782;23.108;2023-04-06T01:54:07;18.25;;;10.07;;
62929;SDS011;49036;42.782;23.108;2023-04-06T01:56:33;20.88;;;11.18;;
62929;SDS011;49036;42.782;23.108;2023-04-06T01:58:59;17.95;;;10.13;;
62929;SDS011;49036;42.782;23.108;2023-04-06T02:01:24;15.65;;;10.18;;
62929;SDS011;49036;42.782;23.108;2023-04-06T02:03:50;18.48;;;11.45;;
62929;SDS011;49036;42.782;23.108;2023-04-06T02:06:15;24.05;;;10.25;;
62929;SDS011;49036;42.782;23.108;2023-04-06T02:08:41;19.08;;;10.05;;
62929;SDS011;49036;42.782;23.108;2023-04-06T02:11:07;19.40;;;11.07;;
62929;SDS011;49036;42.782;23.108;2023-04-06T02:13:32;21.25;;;11.77;;
62929;SDS011;49036;42.782;23.108;2023-04-06T02:15:58;18.55;;;11.15;;
62929;SDS011;49036;42.782;23.108;2023-04-06T02:18:23;18.30;;;11.73;;
62929;SDS011;49036;42.782;23.108;2023-04-06T02:20:49;20.42;;;11.98;;
62929;SDS011;49036;42.782;23.108;2023-04-06T02:23:15;20.85;;;10.95;;
62929;SDS011;49036;42.782;23.108;2023-04-06T02:25:40;18.58;;;10.52;;
62929;SDS011;49036;42.782;23.108;2023-04-06T02:28:06;21.30;;;9.77;;
62929;SDS011;49036;42.782;23.108;2023-04-06T02:30:32;19.50;;;10.55;;
62929;SDS011;49036;42.782;23.108;2023-04-06T02:32:59;20.52;;;11.68;;
62929;SDS011;49036;42.782;23.108;2023-04-06T02:35:27;21.73;;;12.57;;
62929;SDS011;49036;42.782;23.108;2023-04-06T02:37:53;20.60;;;10.82;;
62929;SDS011;49036;42.782;23.108;2023-04-06T02:40:19;20.65;;;12.15;;
62929;SDS011;49036;42.782;23.108;2023-04-06T02:42:44;18.20;;;9.98;;
62929;SDS011;49036;42.782;23.108;2023-04-06T02:45:10;16.10;;;9.68;;
62929;SDS011;49036;42.782;23.108;2023-04-06T02:47:36;21.42;;;9.02;;
62929;SDS011;49036;42.782;23.108;2023-04-06T02:50:01;14.85;;;9.00;;
62929;SDS011;49036;42.782;23.108;2023-04-06T02:52:27;18.20;;;8.38;;
62929;SDS011;49036;42.782;23.108;2023-04-06T02:54:53;19.23;;;10.68;;
62929;SDS011;49036;42.782;23.108;2023-04-06T02:57:18;19.02;;;9.55;;
62929;SDS011;49036;42.782;23.108;2023-04-06T02:59:44;14.85;;;9.75;;
62929;SDS011;49036;42.782;23.108;2023-04-06T03:02:09;22.42;;;10.63;;
62929;SDS011;49036;42.782;23.108;2023-04-06T03:04:35;18.30;;;10.13;;
62929;SDS011;49036;42.782;23.108;2023-04-06T03:07:00;19.40;;;11.27;;
62929;SDS011;49036;42.782;23.108;2023-04-06T03:09:26;19.48;;;10.25;;
62929;SDS011;49036;42.782;23.108;2023-04-06T03:11:52;13.82;;;8.32;;
62929;SDS011;49036;42.782;23.108;2023-04-06T03:14:17;20.23;;;11.30;;
62929;SDS011;49036;42.782;23.108;2023-04-06T03:16:46;23.38;;;10.55;;
62929;SDS011;49036;42.782;23.108;2023-04-06T03:19:13;19.35;;;10.77;;
62929;SDS011;49036;42.782;23.108;2023-04-06T03:21:38;19.80;;;11.30;;
62929;SDS011;49036;42.782;23.108;2023-04-06T03:24:04;18.13;;;8.60;;
62929;SDS011;49036;42.782;23.108;2023-04-06T03:28:56;16.90;;;10.93;;
62929;SDS011;49036;42.782;23.108;2023-04-06T03:31:21;13.52;;;8.15;;
62929;SDS011;49036;42.782;23.108;2023-04-06T03:33:47;21.50;;;11.05;;
62929;SDS011;49036;42.782;23.108;2023-04-06T03:36:12;22.65;;;11.85;;
62929;SDS011;49036;42.782;23.108;2023-04-06T03:38:38;22.65;;;11.18;;
62929;SDS011;49036;42.782;23.108;2023-04-06T03:41:03;20.10;;;10.00;;
62929;SDS011;49036;42.782;23.108;2023-04-06T03:43:29;20.98;;;9.50;;
62929;SDS011;49036;42.782;23.108;2023-04-06T03:45:54;15.88;;;8.63;;
62929;SDS011;49036;42.782;23.108;2023-04-06T03:48:20;27.20;;;12.88;;
62929;SDS011;49036;42.782;23.108;2023-04-06T03:50:45;18.60;;;10.60;;
62929;SDS011;49036;42.782;23.108;2023-04-06T03:53:11;17.77;;;10.02;;
62929;SDS011;49036;42.782;23.108;2023-04-06T03:55:36;19.23;;;11.52;;
62929;SDS011;49036;42.782;23.108;2023-04-06T03:58:02;20.45;;;10.63;;
62929;SDS011;49036;42.782;23.108;2023-04-06T04:00:28;20.95;;;10.98;;
62929;SDS011;49036;42.782;23.108;2023-04-06T04:02:53;18.48;;;10.50;;
62929;SDS011;49036;42.782;23.108;2023-04-06T04:05:19;17.85;;;10.18;;
62929;SDS011;49036;42.782;23.108;2023-04-06T04:07:44;16.75;;;10.18;;
62929;SDS011;49036;42.782;23.108;2023-04-06T04:10:10;19.75;;;12.35;;
62929;SDS011;49036;42.782;23.108;2023-04-06T04:12:35;18.02;;;9.75;;
62929;SDS011;49036;42.782;23.108;2023-04-06T04:15:01;16.98;;;9.45;;
62929;SDS011;49036;42.782;23.108;2023-04-06T04:19:53;14.07;;;8.18;;
62929;SDS011;49036;42.782;23.108;2023-04-06T04:22:19;13.98;;;8.25;;
62929;SDS011;49036;42.782;23.108;2023-04-06T04:24:44;13.93;;;7.47;;
62929;SDS011;49036;42.782;23.108;2023-04-06T04:27:10;18.90;;;10.15;;
62929;SDS011;49036;42.782;23.108;2023-04-06T04:29:35;22.13;;;8.75;;
62929;SDS011;49036;42.782;23.108;2023-04-06T04:32:01;19.42;;;10.32;;
62929;SDS011;49036;42.782;23.108;2023-04-06T04:34:26;17.42;;;10.77;;
62929;SDS011;49036;42.782;23.108;2023-04-06T04:36:53;15.95;;;9.48;;
62929;SDS011;49036;42.782;23.108;2023-04-06T04:39:18;21.23;;;10.05;;
62929;SDS011;49036;42.782;23.108;2023-04-06T04:41:44;16.85;;;10.10;;
62929;SDS011;49036;42.782;23.108;2023-04-06T04:44:10;22.00;;;10.43;;
62929;SDS011;49036;42.782;23.108;2023-04-06T04:46:35;14.50;;;7.97;;
62929;SDS011;49036;42.782;23.108;2023-04-06T04:49:01;20.75;;;8.40;;
62929;SDS011;49036;42.782;23.108;2023-04-06T04:51:26;17.55;;;8.48;;
62929;SDS011;49036;42.782;23.108;2023-04-06T04:53:52;15.05;;;8.25;;
62929;SDS011;49036;42.782;23.108;2023-04-06T04:56:18;18.80;;;7.95;;
62929;SDS011;49036;42.782;23.108;2023-04-06T04:58:43;20.83;;;10.25;;
62929;SDS011;49036;42.782;23.108;2023-04-06T05:01:09;18.05;;;8.20;;
62929;SDS011;49036;42.782;23.108;2023-04-06T05:03:36;17.83;;;8.70;;
62929;SDS011;49036;42.782;23.108;2023-04-06T05:06:04;14.57;;;7.93;;
62929;SDS011;49036;42.782;23.108;2023-04-06T05:08:30;15.02;;;9.23;;
62929;SDS011;49036;42.782;23.108;2023-04-06T05:10:55;16.70;;;8.02;;
62929;SDS011;49036;42.782;23.108;2023-04-06T05:13:21;19.70;;;9.18;;
62929;SDS011;49036;42.782;23.108;2023-04-06T05:15:47;17.35;;;9.30;;
62929;SDS011;49036;42.782;23.108;2023-04-06T05:18:13;14.73;;;7.85;;
62929;SDS011;49036;42.782;23.108;2023-04-06T05:20:38;18.77;;;9.95;;
62929;SDS011;49036;42.782;23.108;2023-04-06T05:23:04;20.70;;;9.20;;
62929;SDS011;49036;42.782;23.108;2023-04-06T05:25:30;22.00;;;10.60;;
62929;SDS011;49036;42.782;23.108;2023-04-06T05:27:56;20.98;;;9.95;;
62929;SDS011;49036;42.782;23.108;2023-04-06T05:30:21;16.50;;;8.63;;
62929;SDS011;49036;42.782;23.108;2023-04-06T05:32:47;17.27;;;9.38;;
62929;SDS011;49036;42.782;23.108;2023-04-06T05:35:12;14.85;;;8.60;;
62929;SDS011;49036;42.782;23.108;2023-04-06T05:37:38;20.63;;;9.40;;
62929;SDS011;49036;42.782;23.108;2023-04-06T05:40:04;15.77;;;8.77;;
62929;SDS011;49036;42.782;23.108;2023-04-06T05:42:40;19.58;;;10.48;;
62929;SDS011;49036;42.782;23.108;2023-04-06T05:45:07;17.65;;;9.80;;
62929;SDS011;49036;42.782;23.108;2023-04-06T05:47:34;13.45;;;8.98;;
62929;SDS011;49036;42.782;23.108;2023-04-06T05:50:00;20.88;;;9.15;;
62929;SDS011;49036;42.782;23.108;2023-04-06T05:52:25;17.02;;;10.60;;
62929;SDS011;49036;42.782;23.108;2023-04-06T05:54:53;19.45;;;10.32;;
62929;SDS011;49036;42.782;23.108;2023-04-06T05:57:19;20.05;;;8.73;;
62929;SDS011;49036;42.782;23.108;2023-04-06T05:59:44;17.83;;;10.38;;
62929;SDS011;49036;42.782;23.108;2023-04-06T06:02:10;15.95;;;8.88;;
62929;SDS011;49036;42.782;23.108;2023-04-06T06:04:35;27.73;;;10.07;;
62929;SDS011;49036;42.782;23.108;2023-04-06T06:07:01;20.48;;;11.23;;
62929;SDS011;49036;42.782;23.108;2023-04-06T06:09:26;21.60;;;9.32;;
62929;SDS011;49036;42.782;23.108;2023-04-06T06:11:52;14.43;;;9.48;;
62929;SDS011;49036;42.782;23.108;2023-04-06T06:14:18;21.90;;;11.85;;
62929;SDS011;49036;42.782;23.108;2023-04-06T06:16:43;19.73;;;9.55;;
62929;SDS011;49036;42.782;23.108;2023-04-06T06:19:09;18.67;;;8.93;;
62929;SDS011;49036;42.782;23.108;2023-04-06T06:21:35;18.83;;;9.55;;
62929;SDS011;49036;42.782;23.108;2023-04-06T06:24:01;21.98;;;9.48;;
62929;SDS011;49036;42.782;23.108;2023-04-06T06:26:27;20.58;;;9.48;;
62929;SDS011;49036;42.782;23.108;2023-04-06T06:28:52;20.08;;;9.73;;
62929;SDS011;49036;42.782;23.108;2023-04-06T06:31:18;15.60;;;9.77;;
62929;SDS011;49036;42.782;23.108;2023-04-06T06:33:45;18.98;;;8.45;;
62929;SDS011;49036;42.782;23.108;2023-04-06T06:36:11;10.45;;;6.57;;
62929;SDS011;49036;42.782;23.108;2023-04-06T06:38:37;16.48;;;9.57;;
62929;SDS011;49036;42.782;23.108;2023-04-06T06:41:03;19.63;;;9.93;;
62929;SDS011;49036;42.782;23.108;2023-04-06T06:43:28;15.73;;;10.05;;
62929;SDS011;49036;42.782;23.108;2023-04-06T06:45:54;19.05;;;9.23;;
62929;SDS011;49036;42.782;23.108;2023-04-06T06:48:19;25.75;;;11.07;;
62929;SDS011;49036;42.782;23.108;2023-04-06T06:50:47;16.17;;;9.20;;
62929;SDS011;49036;42.782;23.108;2023-04-06T06:53:13;10.90;;;6.88;;
62929;SDS011;49036;42.782;23.108;2023-04-06T06:55:39;19.35;;;10.38;;
62929;SDS011;49036;42.782;23.108;2023-04-06T06:58:04;11.40;;;7.97;;
62929;SDS011;49036;42.782;23.108;2023-04-06T07:00:31;15.45;;;9.73;;
62929;SDS011;49036;42.782;23.108;2023-04-06T07:02:56;22.35;;;10.73;;
62929;SDS011;49036;42.782;23.108;2023-04-06T07:05:22;14.48;;;8.80;;
62929;SDS011;49036;42.782;23.108;2023-04-06T07:07:47;16.95;;;9.05;;
62929;SDS011;49036;42.782;23.108;2023-04-06T07:10:13;19.83;;;9.30;;
62929;SDS011;49036;42.782;23.108;2023-04-06T07:12:38;11.55;;;7.22;;
62929;SDS011;49036;42.782;23.108;2023-04-06T07:15:04;16.35;;;9.02;;
62929;SDS011;49036;42.782;23.108;2023-04-06T07:17:31;16.30;;;10.02;;
62929;SDS011;49036;42.782;23.108;2023-04-06T07:19:56;17.95;;;7.50;;
62929;SDS011;49036;42.782;23.108;2023-04-06T07:22:22;14.93;;;8.93;;
62929;SDS011;49036;42.782;23.108;2023-04-06T07:24:47;14.00;;;8.45;;
62929;SDS011;49036;42.782;23.108;2023-04-06T07:27:13;13.00;;;7.95;;
62929;SDS011;49036;42.782;23.108;2023-04-06T07:29:39;11.43;;;7.70;;
62929;SDS011;49036;42.782;23.108;2023-04-06T07:32:04;15.20;;;9.38;;
62929;SDS011;49036;42.782;23.108;2023-04-06T07:34:30;16.98;;;10.23;;
62929;SDS011;49036;42.782;23.108;2023-04-06T07:36:56;17.48;;;9.50;;
62929;SDS011;49036;42.782;23.108;2023-04-06T07:39:21;12.32;;;8.20;;
62929;SDS011;49036;42.782;23.108;2023-04-06T07:41:47;16.55;;;9.05;;
62929;SDS011;49036;42.782;23.108;2023-04-06T07:44:12;13.35;;;6.45;;
62929;SDS011;49036;42.782;23.108;2023-04-06T07:46:38;14.68;;;7.57;;
62929;SDS011;49036;42.782;23.108;2023-04-06T07:49:04;16.65;;;8.88;;
62929;SDS011;49036;42.782;23.108;2023-04-06T07:51:29;18.85;;;9.23;;
62929;SDS011;49036;42.782;23.108;2023-04-06T07:53:56;12.13;;;8.15;;
62929;SDS011;49036;42.782;23.108;2023-04-06T07:56:21;14.85;;;8.52;;
62929;SDS011;49036;42.782;23.108;2023-04-06T07:58:48;13.48;;;7.75;;
62929;SDS011;49036;42.782;23.108;2023-04-06T08:01:13;11.40;;;7.55;;
62929;SDS011;49036;42.782;23.108;2023-04-06T08:03:39;12.85;;;7.35;;
62929;SDS011;49036;42.782;23.108;2023-04-06T08:06:05;14.48;;;7.90;;
62929;SDS011;49036;42.782;23.108;2023-04-06T08:08:31;13.98;;;7.97;;
62929;SDS011;49036;42.782;23.108;2023-04-06T08:10:56;16.08;;;7.35;;
62929;SDS011;49036;42.782;23.108;2023-04-06T08:13:22;16.80;;;7.35;;
62929;SDS011;49036;42.782;23.108;2023-04-06T08:15:48;12.90;;;8.18;;
62929;SDS011;49036;42.782;23.108;2023-04-06T08:18:13;14.48;;;8.52;;
62929;SDS011;49036;42.782;23.108;2023-04-06T08:20:39;12.80;;;8.02;;
62929;SDS011;49036;42.782;23.108;2023-04-06T08:23:05;13.95;;;8.13;;
62929;SDS011;49036;42.782;23.108;2023-04-06T08:25:33;11.77;;;6.95;;
62929;SDS011;49036;42.782;23.108;2023-04-06T08:28:00;12.45;;;8.90;;
62929;SDS011;49036;42.782;23.108;2023-04-06T08:30:26;11.80;;;6.88;;
62929;SDS011;49036;42.782;23.108;2023-04-06T08:32:51;15.52;;;7.72;;
62929;SDS011;49036;42.782;23.108;2023-04-06T08:35:17;12.82;;;7.50;;
62929;SDS011;49036;42.782;23.108;2023-04-06T08:37:43;12.75;;;6.35;;
62929;SDS011;49036;42.782;23.108;2023-04-06T08:40:08;12.10;;;6.88;;
62929;SDS011;49036;42.782;23.108;2023-04-06T08:42:37;22.80;;;8.90;;
62929;SDS011;49036;42.782;23.108;2023-04-06T08:45:05;12.93;;;7.60;;
62929;SDS011;49036;42.782;23.108;2023-04-06T08:47:31;14.82;;;9.82;;
62929;SDS011;49036;42.782;23.108;2023-04-06T08:49:57;12.07;;;7.20;;
62929;SDS011;49036;42.782;23.108;2023-04-06T08:52:24;13.02;;;7.60;;
62929;SDS011;49036;42.782;23.108;2023-04-06T08:54:51;13.70;;;7.75;;
62929;SDS011;49036;42.782;23.108;2023-04-06T08:57:17;11.90;;;8.18;;
62929;SDS011;49036;42.782;23.108;2023-04-06T08:59:44;14.38;;;8.95;;
62929;SDS011;49036;42.782;23.108;2023-04-06T09:02:11;12.38;;;8.43;;
62929;SDS011;49036;42.782;23.108;2023-04-06T09:04:42;11.30;;;6.78;;
62929;SDS011;49036;42.782;23.108;2023-04-06T09:07:09;14.90;;;7.63;;
62929;SDS011;49036;42.782;23.108;2023-04-06T09:09:35;8.90;;;7.28;;
62929;SDS011;49036;42.782;23.108;2023-04-06T09:12:01;12.07;;;7.38;;
62929;SDS011;49036;42.782;23.108;2023-04-06T09:14:36;12.43;;;7.50;;
62929;SDS011;49036;42.782;23.108;2023-04-06T09:17:03;15.07;;;8.55;;
62929;SDS011;49036;42.782;23.108;2023-04-06T09:19:30;12.77;;;7.00;;
62929;SDS011;49036;42.782;23.108;2023-04-06T09:22:05;13.13;;;8.05;;
62929;SDS011;49036;42.782;23.108;2023-04-06T09:24:41;12.52;;;7.70;;
62929;SDS011;49036;42.782;23.108;2023-04-06T09:29:32;18.02;;;7.60;;
62929;SDS011;49036;42.782;23.108;2023-04-06T09:34:27;16.83;;;7.38;;
62929;SDS011;49036;42.782;23.108;2023-04-06T09:36:53;13.27;;;8.30;;
62929;SDS011;49036;42.782;23.108;2023-04-06T09:39:20;13.65;;;7.07;;
62929;SDS011;49036;42.782;23.108;2023-04-06T09:41:52;9.93;;;5.75;;
62929;SDS011;49036;42.782;23.108;2023-04-06T09:44:19;13.77;;;7.90;;
62929;SDS011;49036;42.782;23.108;2023-04-06T09:46:45;11.02;;;8.30;;
62929;SDS011;49036;42.782;23.108;2023-04-06T09:49:12;11.50;;;7.18;;
62929;SDS011;49036;42.782;23.108;2023-04-06T09:52:00;15.80;;;7.07;;
62929;SDS011;49036;42.782;23.108;2023-04-06T09:54:28;12.07;;;7.85;;
62929;SDS011;49036;42.782;23.108;2023-04-06T09:56:56;17.15;;;7.75;;
62929;SDS011;49036;42.782;23.108;2023-04-06T10:02:05;12.73;;;8.38;;
62929;SDS011;49036;42.782;23.108;2023-04-06T10:07:15;12.32;;;7.53;;
62929;SDS011;49036;42.782;23.108;2023-04-06T10:09:42;24.38;;;7.93;;
62929;SDS011;49036;42.782;23.108;2023-04-06T10:12:11;9.43;;;5.95;;
62929;SDS011;49036;42.782;23.108;2023-04-06T10:14:38;13.18;;;8.07;;
62929;SDS011;49036;42.782;23.108;2023-04-06T10:17:06;10.93;;;6.90;;
62929;SDS011;49036;42.782;23.108;2023-04-06T10:19:53;14.50;;;6.93;;
62929;SDS011;49036;42.782;23.108;2023-04-06T10:22:29;10.25;;;6.00;;
62929;SDS011;49036;42.782;23.108;2023-04-06T10:25:00;10.93;;;7.60;;
62929;SDS011;49036;42.782;23.108;2023-04-06T10:27:29;11.32;;;6.82;;
62929;SDS011;49036;42.782;23.108;2023-04-06T10:30:00;20.00;;;9.07;;
62929;SDS011;49036;42.782;23.108;2023-04-06T10:32:34;8.45;;;5.70;;
62929;SDS011;49036;42.782;23.108;2023-04-06T10:35:09;15.20;;;6.25;;
62929;SDS011;49036;42.782;23.108;2023-04-06T10:40:31;12.77;;;7.32;;
62929;SDS011;49036;42.782;23.108;2023-04-06T10:43:06;13.45;;;7.80;;
62929;SDS011;49036;42.782;23.108;2023-04-06T10:45:36;11.60;;;6.88;;
62929;SDS011;49036;42.782;23.108;2023-04-06T10:48:18;6.60;;;5.53;;
62929;SDS011;49036;42.782;23.108;2023-04-06T10:50:47;8.88;;;6.05;;
62929;SDS011;49036;42.782;23.108;2023-04-06T10:53:23;10.07;;;6.32;;
62929;SDS011;49036;42.782;23.108;2023-04-06T10:55:56;12.27;;;7.07;;
62929;SDS011;49036;42.782;23.108;2023-04-06T10:58:25;6.97;;;5.88;;
62929;SDS011;49036;42.782;23.108;2023-04-06T11:00:52;11.15;;;6.45;;
62929;SDS011;49036;42.782;23.108;2023-04-06T11:03:19;9.90;;;6.13;;
62929;SDS011;49036;42.782;23.108;2023-04-06T11:05:46;10.63;;;5.93;;
62929;SDS011;49036;42.782;23.108;2023-04-06T11:11:03;9.82;;;7.25;;
62929;SDS011;49036;42.782;23.108;2023-04-06T11:16:15;9.77;;;6.05;;
62929;SDS011;49036;42.782;23.108;2023-04-06T11:18:52;7.95;;;5.85;;
62929;SDS011;49036;42.782;23.108;2023-04-06T11:21:18;10.57;;;6.00;;
62929;SDS011;49036;42.782;23.108;2023-04-06T11:23:45;12.65;;;7.93;;
62929;SDS011;49036;42.782;23.108;2023-04-06T11:26:14;11.45;;;7.70;;
62929;SDS011;49036;42.782;23.108;2023-04-06T11:28:43;12.07;;;6.57;;
62929;SDS011;49036;42.782;23.108;2023-04-06T11:31:09;6.18;;;5.25;;
62929;SDS011;49036;42.782;23.108;2023-04-06T11:33:36;11.05;;;6.78;;
62929;SDS011;49036;42.782;23.108;2023-04-06T11:36:05;10.90;;;6.28;;
62929;SDS011;49036;42.782;23.108;2023-04-06T11:38:31;8.82;;;6.20;;
62929;SDS011;49036;42.782;23.108;2023-04-06T11:40:57;8.18;;;6.03;;
62929;SDS011;49036;42.782;23.108;2023-04-06T11:43:29;10.95;;;7.00;;
62929;SDS011;49036;42.782;23.108;2023-04-06T11:46:02;8.40;;;6.82;;
62929;SDS011;49036;42.782;23.108;2023-04-06T11:48:29;9.75;;;6.03;;
62929;SDS011;49036;42.782;23.108;2023-04-06T11:50:58;6.43;;;5.80;;
62929;SDS011;49036;42.782;23.108;2023-04-06T11:53:30;12.20;;;6.43;;
62929;SDS011;49036;42.782;23.108;2023-04-06T11:55:55;7.60;;;4.38;;
62929;SDS011;49036;42.782;23.108;2023-04-06T11:58:22;8.30;;;5.47;;
62929;SDS011;49036;42.782;23.108;2023-04-06T12:00:47;7.85;;;5.82;;
62929;SDS011;49036;42.782;23.108;2023-04-06T12:03:13;7.82;;;4.68;;
62929;SDS011;49036;42.782;23.108;2023-04-06T12:05:39;6.55;;;4.63;;
62929;SDS011;49036;42.782;23.108;2023-04-06T12:08:05;6.93;;;4.38;;
62929;SDS011;49036;42.782;23.108;2023-04-06T12:10:30;8.93;;;4.30;;
62929;SDS011;49036;42.782;23.108;2023-04-06T12:12:56;5.95;;;5.07;;
62929;SDS011;49036;42.782;23.108;2023-04-06T12:15:22;7.90;;;5.22;;
62929;SDS011;49036;42.782;23.108;2023-04-06T12:17:47;7.93;;;6.28;;
62929;SDS011;49036;42.782;23.108;2023-04-06T12:20:14;11.20;;;6.55;;
62929;SDS011;49036;42.782;23.108;2023-04-06T12:22:40;9.60;;;6.30;;
62929;SDS011;49036;42.782;23.108;2023-04-06T12:25:06;8.57;;;5.13;;
62929;SDS011;49036;42.782;23.108;2023-04-06T12:27:35;8.93;;;5.95;;
62929;SDS011;49036;42.782;23.108;2023-04-06T12:30:00;8.27;;;5.82;;
62929;SDS011;49036;42.782;23.108;2023-04-06T12:32:27;8.18;;;6.03;;
62929;SDS011;49036;42.782;23.108;2023-04-06T12:34:52;9.13;;;5.57;;
62929;SDS011;49036;42.782;23.108;2023-04-06T12:37:18;11.57;;;4.47;;
62929;SDS011;49036;42.782;23.108;2023-04-06T12:39:44;9.95;;;6.45;;
62929;SDS011;49036;42.782;23.108;2023-04-06T12:42:10;5.90;;;5.35;;
62929;SDS011;49036;42.782;23.108;2023-04-06T12:44:36;8.82;;;5.70;;
62929;SDS011;49036;42.782;23.108;2023-04-06T12:47:02;11.05;;;6.50;;
62929;SDS011;49036;42.782;23.108;2023-04-06T12:49:27;10.45;;;6.25;;
62929;SDS011;49036;42.782;23.108;2023-04-06T12:51:53;14.27;;;7.68;;
62929;SDS011;49036;42.782;23.108;2023-04-06T12:54:18;9.75;;;6.60;;
62929;SDS011;49036;42.782;23.108;2023-04-06T12:56:45;7.60;;;5.30;;
62929;SDS011;49036;42.782;23.108;2023-04-06T12:59:11;7.20;;;5.15;;
62929;SDS011;49036;42.782;23.108;2023-04-06T13:01:36;12.68;;;5.55;;
62929;SDS011;49036;42.782;23.108;2023-04-06T13:04:02;8.32;;;5.25;;
62929;SDS011;49036;42.782;23.108;2023-04-06T13:06:28;7.38;;;5.07;;
62929;SDS011;49036;42.782;23.108;2023-04-06T13:08:54;10.90;;;6.25;;
62929;SDS011;49036;42.782;23.108;2023-04-06T13:11:20;9.43;;;5.30;;
62929;SDS011;49036;42.782;23.108;2023-04-06T13:13:49;13.25;;;7.10;;
62929;SDS011;49036;42.782;23.108;2023-04-06T13:16:14;7.95;;;4.55;;
62929;SDS011;49036;42.782;23.108;2023-04-06T13:18:40;8.82;;;5.95;;
62929;SDS011;49036;42.782;23.108;2023-04-06T13:21:06;6.78;;;4.90;;
62929;SDS011;49036;42.782;23.108;2023-04-06T13:26:01;10.73;;;6.03;;
62929;SDS011;49036;42.782;23.108;2023-04-06T13:28:29;7.97;;;6.03;;
62929;SDS011;49036;42.782;23.108;2023-04-06T13:30:57;10.02;;;6.80;;
62929;SDS011;49036;42.782;23.108;2023-04-06T13:33:24;6.57;;;5.35;;
62929;SDS011;49036;42.782;23.108;2023-04-06T13:35:49;7.25;;;4.97;;
62929;SDS011;49036;42.782;23.108;2023-04-06T13:38:15;6.32;;;5.63;;
62929;SDS011;49036;42.782;23.108;2023-04-06T13:40:41;8.10;;;5.50;;
62929;SDS011;49036;42.782;23.108;2023-04-06T13:45:33;9.63;;;5.88;;
62929;SDS011;49036;42.782;23.108;2023-04-06T13:47:58;7.18;;;5.15;;
62929;SDS011;49036;42.782;23.108;2023-04-06T13:50:27;9.07;;;5.75;;
62929;SDS011;49036;42.782;23.108;2023-04-06T13:52:53;6.70;;;4.68;;
62929;SDS011;49036;42.782;23.108;2023-04-06T13:55:19;6.95;;;5.25;;
62929;SDS011;49036;42.782;23.108;2023-04-06T13:57:45;8.02;;;6.07;;
62929;SDS011;49036;42.782;23.108;2023-04-06T14:00:10;11.15;;;6.70;;
62929;SDS011;49036;42.782;23.108;2023-04-06T14:02:38;7.68;;;5.68;;
62929;SDS011;49036;42.782;23.108;2023-04-06T14:05:06;7.25;;;5.63;;
62929;SDS011;49036;42.782;23.108;2023-04-06T14:07:32;8.60;;;5.25;;
62929;SDS011;49036;42.782;23.108;2023-04-06T14:09:57;8.45;;;6.15;;
62929;SDS011;49036;42.782;23.108;2023-04-06T14:12:23;8.43;;;5.50;;
62929;SDS011;49036;42.782;23.108;2023-04-06T14:14:49;8.63;;;5.97;;
62929;SDS011;49036;42.782;23.108;2023-04-06T14:17:15;13.32;;;6.53;;
62929;SDS011;49036;42.782;23.108;2023-04-06T14:19:40;14.85;;;5.18;;
62929;SDS011;49036;42.782;23.108;2023-04-06T14:22:06;7.28;;;4.57;;
62929;SDS011;49036;42.782;23.108;2023-04-06T14:24:32;9.20;;;6.05;;
62929;SDS011;49036;42.782;23.108;2023-04-06T14:26:57;7.03;;;4.80;;
62929;SDS011;49036;42.782;23.108;2023-04-06T14:29:23;6.30;;;4.78;;
62929;SDS011;49036;42.782;23.108;2023-04-06T14:31:48;9.88;;;6.03;;
62929;SDS011;49036;42.782;23.108;2023-04-06T14:34:14;11.27;;;5.65;;
62929;SDS011;49036;42.782;23.108;2023-04-06T14:36:40;10.98;;;5.00;;
62929;SDS011;49036;42.782;23.108;2023-04-06T14:39:07;13.50;;;5.22;;
62929;SDS011;49036;42.782;23.108;2023-04-06T14:41:33;7.03;;;4.93;;
62929;SDS011;49036;42.782;23.108;2023-04-06T14:44:00;6.63;;;5.65;;
62929;SDS011;49036;42.782;23.108;2023-04-06T14:46:26;5.97;;;4.95;;